Warning: Javascript must be enabled to use all the features on this page!


Page Loading - Please Wait...

Click to hideNews Bulletins

Peak Streamflow for the Nation

USGS 10194200 CLEAR CREEK ABOVE DIVERSIONS, NEAR SEVIER, UT

Sevier County, Utah
Hydrologic Unit Code 16030003
Latitude  38°34'46", Longitude 112°17'16" NAD27
Drainage area 164  square miles
Gage datum 5,677.01 feet above NAVD88
Output formats
Table
Graph
Tab-separated file
peakfq (watstore) format
Reselect output format
Water
Year
Date Gage
Height
(feet)
Stream-
flow
(cfs)
1958 1958-05-24 3.363 301
1959 1959-05-16 1.743 42.0
1960 1960-05-15 2.523 136
1961 1961-05-20 2.383 110
1962 1962-02-09 2.873 233
1963 1963-08-02 2.603 170
1964 1964-05-22 2.843 233
1965 1965-08-17 3.363 427
1966 1966-03-13 2.563 164
1967 1967-05-25 3.103 245
1968 1968-05-31 3.733 374
1969 1969-05-07 3.363 266
1970 1970-06-11 3.263 266
1971 1971-03-26 3.703 459
1972 1972-05-26 1.813 57.0
1973 1973-04-29 4.413 769
1974 1974-05-10 2.433 319
1975 1975-06-09 3.343 369
1976 1976-05-16 2.723 201
1977 1977-07-23 2.753 172
1978 1978-05-15 2.803 330
1979 1979-05-22 3.863 610
1980 1980-06-30 4.033 610
1981 1981-07-12 2.303 189
1982 1982-05-28 2.153 162
1983 1983-05-31 4.063 663
1984 1984-05-24   6331
1985 1985-05-04   4501
1986 1986-05-28 1.913 414
1987 1987-05-18 1.843 158
1988 1988-08-26 2.403 906
1989 1989-03-09 1.523 83.0
1990 1990-06-12 1.713 97.0
1991 1991-07-08 2.633 239
1992 1992-05-26 1.863 99.0
1993 1993-05-21 2.143 444
1994 1994-06-01 2.763,6 129
1995 1995-06-06 4.09 441
1996 1996-06-06 2.42 87.0
1997 1997-05-18 3.26 232
1998 1998-06-03 3.49 284
1999 1999-05-30 2.70 144
2000 2000-06-19 2.59 128
2001 2001-05-18 2.79 154
2002 2002-05-21 1.82 40.0
2003 2003-05-30 2.84 164
2005 2005-05-25 4.19 435
2006 2006-02-28 2.75 118
2007 2007-05-21 2.44 83.0
2008 2008-06-05 3.06 182
2009 2009-05-13 2.72 128
2010 2010-06-08 3.88 355
2011 2011-08-03 7.72 2,710
2012 2012-04-27 2.32 149
2013 2013-04-30 2.65 207
2014 2014-07-29 4.43 822
2015 2015-06-10 4.82 995
2016 2016-05-16 2.32 244
2017 2017-07-19 2.48 281
2018 2018-07-17 1.55 109
2019 2019-04-27 3.252 494
2020 2020-05-02 4.93 137
?
  Peak Gage-Height Qualification Codes.
?
  Peak Streamflow Qualification Codes.